createdAt,value
2017-10-27T00:00:20.000Z,1011.18
2017-10-27T00:01:21.426Z,1011.20
2017-10-27T00:02:22.852Z,1011.24
2017-10-27T00:03:24.287Z,1011.21
2017-10-27T00:04:25.710Z,1011.26
2017-10-27T00:05:27.128Z,1011.24
2017-10-27T00:06:28.547Z,1011.22
2017-10-27T00:07:29.963Z,1011.16
2017-10-27T00:08:31.383Z,1011.17
2017-10-27T00:09:32.795Z,1011.15
2017-10-27T00:10:34.222Z,1011.17
2017-10-27T00:11:35.641Z,1011.17
2017-10-27T00:12:37.066Z,1011.17
2017-10-27T00:13:38.494Z,1011.26
2017-10-27T00:14:39.916Z,1011.27
2017-10-27T00:15:41.345Z,1011.30
2017-10-27T00:16:42.760Z,1011.24
2017-10-27T00:17:44.185Z,1011.20
2017-10-27T00:18:45.604Z,1011.18
2017-10-27T00:19:47.022Z,1011.14
2017-10-27T00:20:48.453Z,1011.18
2017-10-27T00:21:49.876Z,1011.16
2017-10-27T00:22:51.302Z,1011.21
2017-10-27T00:23:52.725Z,1011.24
2017-10-27T00:24:54.147Z,1011.20
2017-10-27T00:25:55.557Z,1011.24
2017-10-27T00:26:56.980Z,1011.20
2017-10-27T00:27:58.397Z,1011.19
2017-10-27T00:28:59.818Z,1011.17
2017-10-27T00:30:01.233Z,1011.16
2017-10-27T00:31:02.656Z,1011.15
2017-10-27T00:32:04.084Z,1011.11
2017-10-27T00:33:05.502Z,1011.13
2017-10-27T00:34:06.921Z,1011.18
2017-10-27T00:35:08.386Z,1011.16
2017-10-27T00:36:09.806Z,1011.10
2017-10-27T00:37:11.266Z,1011.16
2017-10-27T00:38:12.695Z,1011.14
2017-10-27T00:39:14.157Z,1011.16
2017-10-27T00:40:15.586Z,1011.11
2017-10-27T00:41:16.993Z,1011.14
2017-10-27T00:42:19.329Z,1011.07
2017-10-27T00:43:20.754Z,1011.06
2017-10-27T00:44:22.178Z,1011.09
2017-10-27T00:45:23.592Z,1011.08
2017-10-27T00:46:25.009Z,1011.15
2017-10-27T00:47:26.427Z,1011.11
2017-10-27T00:48:27.843Z,1011.12
2017-10-27T00:49:29.266Z,1011.18
2017-10-27T00:50:30.684Z,1011.23
2017-10-27T00:51:32.107Z,1011.23
2017-10-27T00:52:33.528Z,1011.15
2017-10-27T00:53:34.953Z,1011.17
2017-10-27T00:54:36.371Z,1011.13
2017-10-27T00:55:37.789Z,1011.19
2017-10-27T00:56:39.215Z,1011.15
2017-10-27T00:57:40.641Z,1011.15
2017-10-27T00:58:42.060Z,1011.17
2017-10-27T00:59:43.476Z,1011.15
2017-10-27T01:00:44.897Z,1011.16
2017-10-27T01:01:46.329Z,1011.16
2017-10-27T01:02:47.759Z,1011.10
2017-10-27T01:03:49.174Z,1011.19
2017-10-27T01:04:50.593Z,1011.13
2017-10-27T01:05:52.012Z,1011.15
2017-10-27T01:06:53.429Z,1011.09
2017-10-27T01:07:54.853Z,1011.08
2017-10-27T01:08:56.274Z,1011.06
2017-10-27T01:09:57.693Z,1011.14
2017-10-27T01:10:59.106Z,1011.13
2017-10-27T01:12:00.522Z,1011.17
2017-10-27T01:13:01.944Z,1011.11
2017-10-27T01:14:03.411Z,1011.16
2017-10-27T01:15:04.835Z,1011.18
2017-10-27T01:16:06.262Z,1011.16
2017-10-27T01:17:07.686Z,1011.17
2017-10-27T01:18:09.219Z,1011.13
2017-10-27T01:19:10.646Z,1011.13
2017-10-27T01:20:12.066Z,1011.15
2017-10-27T01:21:13.518Z,1011.10
2017-10-27T01:22:14.940Z,1011.05
2017-10-27T01:23:16.356Z,1011.07
2017-10-27T01:24:17.768Z,1011.04
2017-10-27T01:25:19.296Z,1011.06
2017-10-27T01:26:20.718Z,1010.99
2017-10-27T01:27:22.148Z,1010.93
2017-10-27T01:28:23.576Z,1010.98
2017-10-27T01:29:24.988Z,1010.92
2017-10-27T01:30:26.408Z,1010.93
2017-10-27T01:31:27.837Z,1010.87
2017-10-27T01:32:29.261Z,1010.86
2017-10-27T01:33:30.677Z,1010.86
2017-10-27T01:34:32.090Z,1010.91
2017-10-27T01:35:33.510Z,1010.85
2017-10-27T01:36:34.927Z,1010.89
2017-10-27T01:37:36.355Z,1010.91
2017-10-27T01:38:37.758Z,1010.88
2017-10-27T01:39:39.179Z,1010.88
2017-10-27T01:40:40.589Z,1010.91
2017-10-27T01:41:42.014Z,1010.94
2017-10-27T01:42:43.432Z,1010.84
2017-10-27T01:43:44.848Z,1010.83
2017-10-27T01:44:46.270Z,1010.81
2017-10-27T01:45:47.685Z,1010.86
2017-10-27T01:46:49.103Z,1010.83
2017-10-27T01:47:50.524Z,1010.81
2017-10-27T01:48:51.948Z,1010.79
2017-10-27T01:49:53.362Z,1010.79
2017-10-27T01:50:54.791Z,1010.78
2017-10-27T01:51:56.205Z,1010.73
2017-10-27T01:52:57.630Z,1010.72
2017-10-27T01:53:59.053Z,1010.80
2017-10-27T01:55:00.478Z,1010.80
2017-10-27T01:56:01.891Z,1010.72
2017-10-27T01:57:03.318Z,1010.79
2017-10-27T01:58:04.754Z,1010.80
2017-10-27T01:59:06.168Z,1010.82
2017-10-27T02:00:07.587Z,1010.80
2017-10-27T02:01:09.023Z,1010.73
2017-10-27T02:02:10.442Z,1010.72
2017-10-27T02:03:11.868Z,1010.73
2017-10-27T02:04:13.290Z,1010.72
2017-10-27T02:05:14.715Z,1010.79
2017-10-27T02:06:16.219Z,1010.72
2017-10-27T02:07:17.641Z,1010.69
2017-10-27T02:08:19.094Z,1010.70
2017-10-27T02:09:20.515Z,1010.74
2017-10-27T02:10:21.932Z,1010.67
2017-10-27T02:11:23.367Z,1010.63
2017-10-27T02:12:24.780Z,1010.65
2017-10-27T02:13:26.201Z,1010.62
2017-10-27T02:14:27.622Z,1010.67
2017-10-27T02:15:29.032Z,1010.65
2017-10-27T02:16:30.453Z,1010.65
2017-10-27T02:17:31.876Z,1010.73
2017-10-27T02:18:33.301Z,1010.71
2017-10-27T02:19:34.719Z,1010.75
2017-10-27T02:20:36.140Z,1010.75
2017-10-27T02:21:37.553Z,1010.79
2017-10-27T02:22:38.966Z,1010.85
2017-10-27T02:23:40.383Z,1010.86
2017-10-27T02:24:41.803Z,1010.93
2017-10-27T02:25:43.225Z,1010.88
2017-10-27T02:26:44.649Z,1010.83
2017-10-27T02:27:46.061Z,1010.89
2017-10-27T02:28:47.482Z,1010.89
2017-10-27T02:29:48.890Z,1010.89
2017-10-27T02:30:50.313Z,1010.82
2017-10-27T02:31:51.735Z,1010.84
2017-10-27T02:32:53.159Z,1010.82
2017-10-27T02:33:54.572Z,1010.83
2017-10-27T02:34:56.031Z,1010.87
2017-10-27T02:35:57.445Z,1010.77
2017-10-27T02:36:58.863Z,1010.74
2017-10-27T02:38:00.284Z,1010.79
2017-10-27T02:39:01.704Z,1010.79
2017-10-27T02:40:03.129Z,1010.75
2017-10-27T02:41:04.541Z,1010.77
2017-10-27T02:42:05.958Z,1010.72
2017-10-27T02:43:07.375Z,1010.76
2017-10-27T02:44:08.813Z,1010.77
2017-10-27T02:45:10.232Z,1010.76
2017-10-27T02:46:12.213Z,1010.71
2017-10-27T02:47:13.631Z,1010.67
2017-10-27T02:48:15.046Z,1010.69
2017-10-27T02:49:16.482Z,1010.69
2017-10-27T02:50:17.897Z,1010.73
2017-10-27T02:51:19.315Z,1010.73
2017-10-27T02:52:20.735Z,1010.74
2017-10-27T02:53:22.159Z,1010.78
2017-10-27T02:54:23.582Z,1010.80
2017-10-27T02:55:24.997Z,1010.81
2017-10-27T02:56:26.411Z,1010.78
2017-10-27T02:57:27.834Z,1010.79
2017-10-27T02:58:29.270Z,1010.73
2017-10-27T02:59:30.682Z,1010.77
2017-10-27T03:00:32.106Z,1010.76
2017-10-27T03:01:33.523Z,1010.78
2017-10-27T03:02:34.945Z,1010.78
2017-10-27T03:03:36.424Z,1010.79
2017-10-27T03:04:37.836Z,1010.78
2017-10-27T03:05:39.335Z,1010.76
2017-10-27T03:06:40.767Z,1010.79
2017-10-27T03:07:42.191Z,1010.75
2017-10-27T03:08:43.624Z,1010.75
2017-10-27T03:09:45.046Z,1010.74
2017-10-27T03:10:46.514Z,1010.74
2017-10-27T03:11:47.935Z,1010.74
2017-10-27T03:12:49.358Z,1010.78
2017-10-27T03:13:50.771Z,1010.77
2017-10-27T03:14:52.190Z,1010.76
2017-10-27T03:15:53.614Z,1010.72
2017-10-27T03:16:55.036Z,1010.80
2017-10-27T03:17:56.456Z,1010.75
2017-10-27T03:18:57.883Z,1010.83
2017-10-27T03:19:59.305Z,1010.84
2017-10-27T03:21:00.715Z,1010.86
2017-10-27T03:22:02.135Z,1010.85
2017-10-27T03:23:03.547Z,1010.84
2017-10-27T03:24:04.972Z,1010.89
2017-10-27T03:25:06.391Z,1010.90
2017-10-27T03:26:07.808Z,1010.90
2017-10-27T03:27:09.221Z,1010.93
2017-10-27T03:28:10.644Z,1010.98
2017-10-27T03:29:12.067Z,1010.98
2017-10-27T03:30:13.488Z,1011.00
2017-10-27T03:31:14.864Z,1010.93
2017-10-27T03:32:16.284Z,1010.94
2017-10-27T03:33:17.701Z,1010.94
2017-10-27T03:34:19.132Z,1010.93
2017-10-27T03:35:20.536Z,1010.93
2017-10-27T03:36:21.955Z,1010.92
2017-10-27T03:37:23.370Z,1010.86
2017-10-27T03:38:24.788Z,1010.90
2017-10-27T03:39:26.214Z,1010.94
2017-10-27T03:40:27.623Z,1010.93
2017-10-27T03:41:29.076Z,1010.92
2017-10-27T03:42:30.461Z,1010.94
2017-10-27T03:43:31.942Z,1010.96
2017-10-27T03:44:33.374Z,1010.90
2017-10-27T03:45:34.800Z,1010.93
2017-10-27T03:46:36.215Z,1010.93
2017-10-27T03:47:37.633Z,1010.92
2017-10-27T03:48:39.067Z,1010.94
2017-10-27T03:49:40.485Z,1010.98
2017-10-27T03:50:41.902Z,1011.04
2017-10-27T03:51:43.316Z,1011.07
2017-10-27T03:52:44.735Z,1011.04
2017-10-27T03:53:46.149Z,1010.99
2017-10-27T03:54:47.569Z,1011.01
2017-10-27T03:55:48.987Z,1010.98
2017-10-27T03:56:50.415Z,1010.93
2017-10-27T03:57:51.835Z,1010.90
2017-10-27T03:58:53.256Z,1010.92
2017-10-27T03:59:54.670Z,1010.87
2017-10-27T04:00:56.095Z,1010.89
2017-10-27T04:01:57.514Z,1010.92
2017-10-27T04:02:58.933Z,1010.91
2017-10-27T04:04:00.354Z,1010.96
2017-10-27T04:05:01.774Z,1010.99
2017-10-27T04:06:03.188Z,1011.01
2017-10-27T04:07:04.606Z,1010.99
2017-10-27T04:08:06.019Z,1010.97
2017-10-27T04:09:07.434Z,1010.98
2017-10-27T04:10:08.857Z,1010.99
2017-10-27T04:11:10.267Z,1010.99
2017-10-27T04:12:11.683Z,1011.03
2017-10-27T04:13:13.105Z,1011.05
2017-10-27T04:14:14.527Z,1011.04
2017-10-27T04:15:15.946Z,1011.08
2017-10-27T04:16:17.367Z,1011.07
2017-10-27T04:17:18.784Z,1011.13
2017-10-27T04:18:20.201Z,1011.17
2017-10-27T04:19:21.614Z,1011.20
2017-10-27T04:20:23.034Z,1011.22
2017-10-27T04:21:24.530Z,1011.20
2017-10-27T04:22:25.953Z,1011.19
2017-10-27T04:23:27.466Z,1011.20
2017-10-27T04:24:28.883Z,1011.21
2017-10-27T04:25:31.131Z,1011.19
2017-10-27T04:26:32.552Z,1011.21
2017-10-27T04:27:33.974Z,1011.18
2017-10-27T04:28:35.388Z,1011.16
2017-10-27T04:29:36.803Z,1011.18
2017-10-27T04:30:38.226Z,1011.26
2017-10-27T04:31:39.647Z,1011.27
2017-10-27T04:32:41.061Z,1011.26
2017-10-27T04:33:42.481Z,1011.29
2017-10-27T04:34:43.895Z,1011.25
2017-10-27T04:35:45.316Z,1011.27
2017-10-27T04:36:46.763Z,1011.30
2017-10-27T04:37:48.154Z,1011.34
2017-10-27T04:38:49.573Z,1011.36
2017-10-27T04:39:50.984Z,1011.38
2017-10-27T04:40:52.410Z,1011.40
2017-10-27T04:41:53.835Z,1011.42
2017-10-27T04:42:55.252Z,1011.46
2017-10-27T04:43:56.669Z,1011.45
2017-10-27T04:44:58.094Z,1011.48
2017-10-27T04:45:59.518Z,1011.46
2017-10-27T04:47:00.937Z,1011.47
2017-10-27T04:48:02.360Z,1011.51
2017-10-27T04:49:03.779Z,1011.54
2017-10-27T04:50:05.207Z,1011.59
2017-10-27T04:51:06.627Z,1011.51
2017-10-27T04:52:08.041Z,1011.54
2017-10-27T04:53:09.464Z,1011.57
2017-10-27T04:54:10.883Z,1011.54
2017-10-27T04:55:12.333Z,1011.51
2017-10-27T04:56:13.754Z,1011.52
2017-10-27T04:57:15.200Z,1011.50
2017-10-27T04:58:16.627Z,1011.55
2017-10-27T04:59:18.065Z,1011.55
2017-10-27T05:00:19.470Z,1011.57
2017-10-27T05:01:20.894Z,1011.59
2017-10-27T05:02:22.325Z,1011.58
2017-10-27T05:03:23.743Z,1011.66
2017-10-27T05:04:25.161Z,1011.66
2017-10-27T05:05:26.578Z,1011.64
2017-10-27T05:06:27.993Z,1011.65
2017-10-27T05:07:29.418Z,1011.66
2017-10-27T05:08:30.839Z,1011.66
2017-10-27T05:09:32.265Z,1011.66
2017-10-27T05:10:33.688Z,1011.65
2017-10-27T05:11:35.110Z,1011.74
2017-10-27T05:12:36.533Z,1011.69
2017-10-27T05:13:37.954Z,1011.71
2017-10-27T05:14:39.378Z,1011.66
2017-10-27T05:15:40.799Z,1011.68
2017-10-27T05:16:42.222Z,1011.67
2017-10-27T05:17:43.643Z,1011.73
2017-10-27T05:18:45.063Z,1011.72
2017-10-27T05:19:46.494Z,1011.77
2017-10-27T05:20:47.900Z,1011.75
2017-10-27T05:21:49.312Z,1011.76
2017-10-27T05:22:50.726Z,1011.74
2017-10-27T05:23:52.145Z,1011.72
2017-10-27T05:24:53.568Z,1011.71
2017-10-27T05:25:54.987Z,1011.72
2017-10-27T05:26:56.409Z,1011.73
2017-10-27T05:27:57.824Z,1011.73
2017-10-27T05:28:59.241Z,1011.75
2017-10-27T05:30:00.658Z,1011.73
2017-10-27T05:31:02.074Z,1011.74
2017-10-27T05:32:03.506Z,1011.74
2017-10-27T05:33:04.924Z,1011.76
2017-10-27T05:34:06.344Z,1011.80
2017-10-27T05:35:07.841Z,1011.76
2017-10-27T05:36:09.267Z,1011.74
2017-10-27T05:37:10.674Z,1011.79
2017-10-27T05:38:12.093Z,1011.75
2017-10-27T05:39:13.523Z,1011.80
2017-10-27T05:40:14.954Z,1011.84
2017-10-27T05:41:16.375Z,1011.87
2017-10-27T05:42:17.793Z,1011.85
2017-10-27T05:43:19.214Z,1011.91
2017-10-27T05:44:20.635Z,1011.86
2017-10-27T05:45:22.058Z,1011.89
2017-10-27T05:46:23.474Z,1011.89
2017-10-27T05:47:24.886Z,1011.91
2017-10-27T05:48:27.949Z,1011.90
2017-10-27T05:49:29.372Z,1011.87
2017-10-27T05:50:30.788Z,1011.89
2017-10-27T05:51:32.208Z,1011.94
2017-10-27T05:52:33.636Z,1011.89
2017-10-27T05:53:35.058Z,1012.02
2017-10-27T05:54:36.478Z,1012.00
2017-10-27T05:55:37.895Z,1012.00
2017-10-27T05:56:39.317Z,1011.99
2017-10-27T05:57:40.746Z,1011.97
2017-10-27T05:58:42.164Z,1011.99
2017-10-27T05:59:43.575Z,1012.05
2017-10-27T06:00:44.991Z,1012.05
2017-10-27T06:01:46.416Z,1012.07
2017-10-27T06:02:47.839Z,1012.07
2017-10-27T06:03:49.270Z,1012.04
2017-10-27T06:04:50.695Z,1012.10
2017-10-27T06:05:52.112Z,1012.18
2017-10-27T06:06:53.526Z,1012.17
2017-10-27T06:07:54.953Z,1012.22
2017-10-27T06:08:56.355Z,1012.19
2017-10-27T06:09:57.775Z,1012.23
2017-10-27T06:10:59.196Z,1012.24
2017-10-27T06:12:00.614Z,1012.20
2017-10-27T06:13:02.035Z,1012.28
2017-10-27T06:14:03.462Z,1012.25
2017-10-27T06:15:04.894Z,1012.28
2017-10-27T06:16:06.318Z,1012.31
2017-10-27T06:17:07.729Z,1012.39
2017-10-27T06:18:09.142Z,1012.44
2017-10-27T06:19:10.560Z,1012.39
2017-10-27T06:20:11.987Z,1012.41
2017-10-27T06:21:13.400Z,1012.40
2017-10-27T06:22:14.818Z,1012.43
2017-10-27T06:23:16.239Z,1012.40
2017-10-27T06:24:17.655Z,1012.39
2017-10-27T06:25:19.073Z,1012.40
2017-10-27T06:26:20.490Z,1012.43
2017-10-27T06:27:21.909Z,1012.44
2017-10-27T06:28:23.339Z,1012.46
2017-10-27T06:29:24.765Z,1012.42
2017-10-27T06:30:26.186Z,1012.53
2017-10-27T06:31:27.603Z,1012.51
2017-10-27T06:32:29.034Z,1012.53
2017-10-27T06:33:30.475Z,1012.48
2017-10-27T06:34:31.890Z,1012.49
2017-10-27T06:35:34.230Z,1012.54
2017-10-27T06:36:35.666Z,1012.59
2017-10-27T06:37:37.089Z,1012.59
2017-10-27T06:38:38.506Z,1012.65
2017-10-27T06:39:39.924Z,1012.73
2017-10-27T06:40:41.359Z,1012.70
2017-10-27T06:41:42.784Z,1012.74
2017-10-27T06:42:44.211Z,1012.73
2017-10-27T06:43:45.636Z,1012.81
2017-10-27T06:44:47.065Z,1012.77
2017-10-27T06:45:48.487Z,1012.82
2017-10-27T06:46:49.908Z,1012.87
2017-10-27T06:47:51.326Z,1012.94
2017-10-27T06:48:52.743Z,1012.93
2017-10-27T06:49:54.157Z,1012.93
2017-10-27T06:50:55.583Z,1012.95
2017-10-27T06:51:57.009Z,1013.00
2017-10-27T06:52:58.446Z,1013.00
2017-10-27T06:53:59.882Z,1013.02
2017-10-27T06:55:01.313Z,1012.98
2017-10-27T06:56:02.726Z,1012.99
2017-10-27T06:57:04.154Z,1013.02
2017-10-27T06:58:05.593Z,1013.03
2017-10-27T06:59:07.012Z,1013.02
2017-10-27T07:00:08.426Z,1013.01
2017-10-27T07:01:09.845Z,1013.03
2017-10-27T07:02:11.284Z,1013.08
2017-10-27T07:03:12.708Z,1013.10
2017-10-27T07:04:14.124Z,1013.07
2017-10-27T07:05:15.559Z,1013.08
2017-10-27T07:06:16.976Z,1013.10
2017-10-27T07:07:18.405Z,1013.16
2017-10-27T07:08:19.828Z,1013.19
2017-10-27T07:09:21.246Z,1013.19
2017-10-27T07:10:22.693Z,1013.20
2017-10-27T07:11:24.124Z,1013.24
2017-10-27T07:12:25.547Z,1013.24
2017-10-27T07:13:26.969Z,1013.25
2017-10-27T07:14:29.831Z,1013.24
2017-10-27T07:15:31.262Z,1013.26
2017-10-27T07:16:32.682Z,1013.32
2017-10-27T07:17:34.104Z,1013.27
2017-10-27T07:18:35.533Z,1013.26
2017-10-27T07:19:36.950Z,1013.31
2017-10-27T07:20:38.370Z,1013.29
2017-10-27T07:21:39.789Z,1013.28
2017-10-27T07:22:41.220Z,1013.28
2017-10-27T07:23:42.649Z,1013.33
2017-10-27T07:24:44.068Z,1013.34
2017-10-27T07:25:45.487Z,1013.37
2017-10-27T07:26:47.535Z,1013.39
2017-10-27T07:27:48.968Z,1013.44
2017-10-27T07:28:50.387Z,1013.48
2017-10-27T07:29:51.814Z,1013.45
2017-10-27T07:30:53.238Z,1013.45
2017-10-27T07:31:54.664Z,1013.45
2017-10-27T07:32:56.083Z,1013.43
2017-10-27T07:33:57.518Z,1013.38
2017-10-27T07:34:58.948Z,1013.44
2017-10-27T07:36:00.362Z,1013.46
2017-10-27T07:37:01.788Z,1013.51
2017-10-27T07:38:03.215Z,1013.51
2017-10-27T07:39:04.634Z,1013.62
2017-10-27T07:40:06.057Z,1013.66
2017-10-27T07:41:07.479Z,1013.68
2017-10-27T07:42:08.903Z,1013.72
2017-10-27T07:43:10.322Z,1013.74
2017-10-27T07:44:11.744Z,1013.77
2017-10-27T07:45:13.182Z,1013.81
2017-10-27T07:46:14.608Z,1013.85
2017-10-27T07:47:16.028Z,1013.88
2017-10-27T07:48:17.443Z,1013.92
2017-10-27T07:49:18.863Z,1013.92
2017-10-27T07:50:20.295Z,1013.92
2017-10-27T07:51:21.716Z,1013.90
2017-10-27T07:52:23.134Z,1013.97
2017-10-27T07:53:24.557Z,1013.94
2017-10-27T07:54:25.980Z,1013.95
2017-10-27T07:55:27.409Z,1013.98
2017-10-27T07:56:28.833Z,1013.98
2017-10-27T07:57:30.263Z,1014.02
2017-10-27T07:58:31.702Z,1014.00
2017-10-27T07:59:33.112Z,1014.02
2017-10-27T08:00:34.540Z,1014.01
2017-10-27T08:01:35.964Z,1014.03
2017-10-27T08:02:37.382Z,1014.03
2017-10-27T08:03:38.795Z,1014.05
2017-10-27T08:04:40.220Z,1014.10
2017-10-27T08:05:41.638Z,1014.09
2017-10-27T08:06:43.057Z,1014.20
2017-10-27T08:07:44.482Z,1014.15
2017-10-27T08:08:45.912Z,1014.13
2017-10-27T08:09:47.330Z,1014.19
2017-10-27T08:10:48.757Z,1014.21
2017-10-27T08:11:50.189Z,1014.10
2017-10-27T08:12:51.609Z,1014.14
2017-10-27T08:13:53.045Z,1014.18
2017-10-27T08:14:54.475Z,1014.17
2017-10-27T08:15:55.897Z,1014.15
2017-10-27T08:16:57.322Z,1014.21
2017-10-27T08:17:58.752Z,1014.22
2017-10-27T08:19:00.173Z,1014.16
2017-10-27T08:20:01.589Z,1014.22
2017-10-27T08:21:03.010Z,1014.18
2017-10-27T08:22:04.430Z,1014.16
2017-10-27T08:23:05.848Z,1014.18
2017-10-27T08:24:07.279Z,1014.16
2017-10-27T08:25:08.707Z,1014.06
2017-10-27T08:26:10.833Z,1014.16
2017-10-27T08:27:12.265Z,1014.21
2017-10-27T08:28:13.686Z,1014.23
2017-10-27T08:29:15.116Z,1014.16
2017-10-27T08:30:16.534Z,1014.22
2017-10-27T08:31:17.961Z,1014.25
2017-10-27T08:32:19.408Z,1014.22
2017-10-27T08:33:20.829Z,1014.23
2017-10-27T08:34:22.250Z,1014.29
2017-10-27T08:35:23.667Z,1014.27
2017-10-27T08:36:25.079Z,1014.28
2017-10-27T08:37:26.510Z,1014.32
2017-10-27T08:38:27.922Z,1014.32
2017-10-27T08:39:29.346Z,1014.33
2017-10-27T08:40:30.767Z,1014.39
2017-10-27T08:41:32.187Z,1014.41
2017-10-27T08:42:33.615Z,1014.38
2017-10-27T08:43:35.038Z,1014.45
2017-10-27T08:44:36.474Z,1014.45
2017-10-27T08:45:37.893Z,1014.46
2017-10-27T08:46:39.327Z,1014.44
2017-10-27T08:47:40.758Z,1014.46
2017-10-27T08:48:42.176Z,1014.48
2017-10-27T08:49:43.596Z,1014.49
2017-10-27T08:50:45.017Z,1014.50
2017-10-27T08:51:46.438Z,1014.51
2017-10-27T08:52:47.876Z,1014.51
2017-10-27T08:53:49.299Z,1014.54
2017-10-27T08:54:50.715Z,1014.56
2017-10-27T08:55:52.134Z,1014.55
2017-10-27T08:56:53.560Z,1014.58
2017-10-27T08:57:54.979Z,1014.54
2017-10-27T08:58:56.408Z,1014.59
2017-10-27T08:59:57.836Z,1014.59
2017-10-27T09:00:59.260Z,1014.55
2017-10-27T09:02:00.696Z,1014.55
2017-10-27T09:03:02.121Z,1014.62
2017-10-27T09:04:03.554Z,1014.60
2017-10-27T09:05:04.980Z,1014.63
2017-10-27T09:06:06.421Z,1014.64
2017-10-27T09:07:07.909Z,1014.66
2017-10-27T09:08:09.346Z,1014.69
2017-10-27T09:09:10.790Z,1014.69
2017-10-27T09:10:12.208Z,1014.73
2017-10-27T09:11:13.634Z,1014.69
2017-10-27T09:12:15.055Z,1014.76
2017-10-27T09:13:16.433Z,1014.79
2017-10-27T09:14:18.479Z,1014.74
2017-10-27T09:15:19.912Z,1014.78
2017-10-27T09:16:21.340Z,1014.75
2017-10-27T09:17:22.759Z,1014.81
2017-10-27T09:18:24.175Z,1014.79
2017-10-27T09:19:25.600Z,1014.83
2017-10-27T09:20:27.024Z,1014.90
2017-10-27T09:21:28.465Z,1014.91
2017-10-27T09:22:29.890Z,1014.86
2017-10-27T09:23:31.314Z,1014.93
2017-10-27T09:24:32.754Z,1014.88
2017-10-27T09:25:34.183Z,1014.90
2017-10-27T09:26:35.612Z,1014.96
2017-10-27T09:27:37.052Z,1015.01
2017-10-27T09:28:38.468Z,1015.02
2017-10-27T09:29:39.910Z,1015.07
2017-10-27T09:30:41.329Z,1015.03
2017-10-27T09:31:42.753Z,1015.05
2017-10-27T09:32:44.177Z,1015.10
2017-10-27T09:33:45.606Z,1015.04
2017-10-27T09:34:47.024Z,1015.09
2017-10-27T09:35:48.452Z,1015.19
2017-10-27T09:36:49.877Z,1015.15
2017-10-27T09:37:51.305Z,1015.20
2017-10-27T09:38:52.725Z,1015.23
2017-10-27T09:39:54.143Z,1015.25
2017-10-27T09:40:55.592Z,1015.29
2017-10-27T09:41:57.016Z,1015.34
2017-10-27T09:42:58.445Z,1015.31
2017-10-27T09:43:59.882Z,1015.28
2017-10-27T09:45:01.306Z,1015.34
2017-10-27T09:46:02.727Z,1015.42
2017-10-27T09:47:04.164Z,1015.44
2017-10-27T09:48:05.591Z,1015.47
2017-10-27T09:49:07.013Z,1015.43
2017-10-27T09:50:08.440Z,1015.51
2017-10-27T09:51:09.879Z,1015.45
2017-10-27T09:52:11.315Z,1015.51
2017-10-27T09:53:12.735Z,1015.56
2017-10-27T09:54:14.168Z,1015.54
2017-10-27T09:55:15.594Z,1015.57
2017-10-27T09:56:17.960Z,1015.59
2017-10-27T09:57:18.422Z,1015.60
2017-10-27T09:58:19.849Z,1015.63
2017-10-27T09:59:21.268Z,1015.68
2017-10-27T10:00:22.691Z,1015.65
2017-10-27T10:01:24.123Z,1015.64
2017-10-27T10:02:25.540Z,1015.69
2017-10-27T10:03:26.980Z,1015.68
2017-10-27T10:04:28.402Z,1015.66
2017-10-27T10:05:29.827Z,1015.69
2017-10-27T10:06:31.247Z,1015.65
2017-10-27T10:07:32.671Z,1015.64
2017-10-27T10:08:34.093Z,1015.63
2017-10-27T10:09:35.523Z,1015.71
2017-10-27T10:10:36.950Z,1015.64
2017-10-27T10:11:38.364Z,1015.65
2017-10-27T10:12:39.797Z,1015.68
2017-10-27T10:13:41.218Z,1015.62
2017-10-27T10:14:42.645Z,1015.70
2017-10-27T10:15:44.067Z,1015.69
2017-10-27T10:16:45.488Z,1015.71
2017-10-27T10:17:46.947Z,1015.75
2017-10-27T10:18:48.386Z,1015.70
2017-10-27T10:19:50.001Z,1015.70
2017-10-27T10:20:51.632Z,1015.75
2017-10-27T10:21:53.056Z,1015.68
2017-10-27T10:22:54.496Z,1015.74
2017-10-27T10:23:55.976Z,1015.76
2017-10-27T10:24:57.397Z,1015.86
2017-10-27T10:25:59.029Z,1015.89
2017-10-27T10:27:00.735Z,1015.88
2017-10-27T10:28:03.354Z,1015.91
2017-10-27T10:29:05.397Z,1015.86
2017-10-27T10:30:06.935Z,1015.90
2017-10-27T10:31:08.363Z,1015.95
2017-10-27T10:32:09.796Z,1015.92
2017-10-27T10:33:12.152Z,1015.91
2017-10-27T10:34:13.562Z,1015.86
2017-10-27T10:35:15.013Z,1015.91
2017-10-27T10:36:16.929Z,1015.89
2017-10-27T10:37:18.388Z,1016.00
2017-10-27T10:38:19.842Z,1015.99
2017-10-27T10:39:23.513Z,1015.95
2017-10-27T10:40:24.946Z,1015.99
2017-10-27T10:41:26.372Z,1016.01
2017-10-27T10:42:27.808Z,1016.08
2017-10-27T10:43:29.239Z,1016.02
2017-10-27T10:44:30.664Z,1016.01
2017-10-27T10:45:32.090Z,1016.08
2017-10-27T10:46:33.508Z,1016.07
2017-10-27T10:47:34.933Z,1016.13
2017-10-27T10:48:36.358Z,1016.07
2017-10-27T10:49:37.778Z,1016.17
2017-10-27T10:50:39.203Z,1016.11
2017-10-27T10:51:40.631Z,1016.07
2017-10-27T10:52:42.054Z,1016.08
2017-10-27T10:53:43.484Z,1016.09
2017-10-27T10:54:44.913Z,1016.09
2017-10-27T10:55:46.325Z,1016.18
2017-10-27T10:56:48.413Z,1016.13
2017-10-27T10:57:49.833Z,1016.13
2017-10-27T10:58:51.269Z,1016.08
2017-10-27T10:59:52.691Z,1016.07
2017-10-27T11:00:54.124Z,1016.04
2017-10-27T11:01:55.550Z,1016.02
2017-10-27T11:02:56.985Z,1015.97
2017-10-27T11:03:58.414Z,1016.01
2017-10-27T11:04:59.850Z,1015.98
2017-10-27T11:06:01.269Z,1016.02
2017-10-27T11:07:02.695Z,1015.97
2017-10-27T11:08:04.122Z,1016.00
2017-10-27T11:09:05.540Z,1015.99
2017-10-27T11:10:06.977Z,1016.02
2017-10-27T11:11:08.396Z,1016.00
2017-10-27T11:12:09.816Z,1016.05
2017-10-27T11:13:11.237Z,1016.00
2017-10-27T11:14:12.668Z,1016.01
2017-10-27T11:15:14.130Z,1015.97
2017-10-27T11:16:15.555Z,1016.04
2017-10-27T11:17:17.006Z,1016.07
2017-10-27T11:18:18.422Z,1016.00
2017-10-27T11:19:19.859Z,1016.03
2017-10-27T11:20:21.278Z,1016.01
2017-10-27T11:21:22.696Z,1015.98
2017-10-27T11:22:24.128Z,1015.99
2017-10-27T11:23:25.565Z,1016.06
2017-10-27T11:24:26.986Z,1016.12
2017-10-27T11:25:28.404Z,1016.13
2017-10-27T11:26:29.830Z,1016.12
2017-10-27T11:27:31.254Z,1016.18
2017-10-27T11:28:32.674Z,1016.18
2017-10-27T11:29:34.094Z,1016.23
2017-10-27T11:30:35.512Z,1016.23
2017-10-27T11:31:36.935Z,1016.27
2017-10-27T11:32:38.997Z,1016.30
2017-10-27T11:33:39.737Z,1016.35
2017-10-27T11:34:41.177Z,1016.37
2017-10-27T11:35:42.598Z,1016.51
2017-10-27T11:36:44.021Z,1016.45
2017-10-27T11:37:45.447Z,1016.35
2017-10-27T11:38:46.880Z,1016.24
2017-10-27T11:39:48.312Z,1016.23
2017-10-27T11:40:49.776Z,1016.29
2017-10-27T11:41:51.197Z,1016.31
2017-10-27T11:42:52.690Z,1016.29
2017-10-27T11:43:54.126Z,1016.27
2017-10-27T11:44:55.563Z,1016.28
2017-10-27T11:45:56.982Z,1016.30
2017-10-27T11:46:58.414Z,1016.39
2017-10-27T11:47:59.877Z,1016.36
2017-10-27T11:49:01.299Z,1016.35
2017-10-27T11:50:02.722Z,1016.49
2017-10-27T11:51:04.164Z,1016.36
2017-10-27T11:52:05.594Z,1016.49
2017-10-27T11:53:07.020Z,1016.49
2017-10-27T11:54:08.449Z,1016.41
2017-10-27T11:55:09.871Z,1016.50
2017-10-27T11:56:11.305Z,1016.59
2017-10-27T11:57:12.734Z,1016.62
2017-10-27T11:58:14.163Z,1016.77
2017-10-27T11:59:15.583Z,1016.77
2017-10-27T12:00:17.030Z,1016.81
2017-10-27T12:01:18.458Z,1016.88
2017-10-27T12:02:19.887Z,1016.92
2017-10-27T12:03:21.318Z,1016.96
2017-10-27T12:04:22.755Z,1017.01
2017-10-27T12:05:24.186Z,1017.01
2017-10-27T12:06:25.628Z,1017.03
2017-10-27T12:07:27.054Z,1017.13
2017-10-27T12:08:28.496Z,1017.14
2017-10-27T12:09:29.926Z,1017.17
2017-10-27T12:10:31.352Z,1016.72
2017-10-27T12:11:32.784Z,1017.16
2017-10-27T12:12:34.224Z,1016.83
2017-10-27T12:13:35.654Z,1017.20
2017-10-27T12:14:37.096Z,1017.22
2017-10-27T12:15:38.528Z,1016.82
2017-10-27T12:16:44.547Z,1017.01
2017-10-27T12:17:48.425Z,1017.19
2017-10-27T12:18:49.858Z,1017.18
2017-10-27T12:19:51.289Z,1016.97
2017-10-27T12:20:52.722Z,1017.24
2017-10-27T12:21:54.158Z,1017.28
2017-10-27T12:22:55.582Z,1016.82